Time;durP1;ratioP1;P1;durP2;ratioP2;P2;SDS_P1;SDS_P2;PMS_P1;PMS_P2;Temp;Humidity;BMP_temperature;BMP_pressure;BME280_temperature;BME280_humidity;BME280_pressure;Samples;Min_cycle;Max_cycle;Signal;HPM_P1;HPM_P2
2023/03/03 00:02:10;;;;;;;45.67;36.15;;;;;;;2.61;85.10;102259.09;5030785;28;20148;-57
2023/03/03 00:04:35;;;;;;;46.83;34.90;;;;;;;2.65;85.49;102258.22;5029242;28;20595;-56
2023/03/03 00:07:01;;;;;;;43.83;34.08;;;;;;;2.50;85.56;102258.34;5030978;28;20071;-56
2023/03/03 00:09:26;;;;;;;45.60;35.45;;;;;;;2.49;86.93;102264.44;5030068;28;20108;-56
2023/03/03 00:11:55;;;;;;;43.60;34.00;;;;;;;2.44;87.05;102266.22;5030820;28;20024;-56
2023/03/03 00:14:32;;;;;;;47.25;35.35;;;;;;;2.30;88.50;102268.09;5030470;28;20048;-56
2023/03/03 00:17:00;;;;;;;48.22;35.60;;;;;;;2.30;88.41;102276.84;5031349;28;20531;-56
2023/03/03 00:19:25;;;;;;;45.90;34.05;;;;;;;2.42;87.79;102265.38;5029354;28;20018;-56
2023/03/03 00:21:56;;;;;;;40.15;29.55;;;;;;;2.50;87.74;102258.34;5029600;28;20089;-56
2023/03/03 00:24:29;;;;;;;;;;;;;;;2.59;87.10;102274.03;5030765;28;20025;-56
2023/03/03 00:26:59;;;;;;;47.15;34.05;;;;;;;2.27;88.51;102272.47;5031237;28;19917;-56
2023/03/03 00:29:27;;;;;;;;;;;;;;;2.51;87.18;102281.06;5031408;28;20490;-56
2023/03/03 00:31:54;;;;;;;40.85;27.95;;;;;;;2.52;87.93;102274.06;5029463;28;19913;-56
2023/03/03 00:34:23;;;;;;;45.00;32.78;;;;;;;2.55;87.71;102279.28;5030330;28;20021;-56
2023/03/03 00:36:54;;;;;;;45.67;34.47;;;;;;;2.60;87.87;102281.00;5029265;28;20120;-57
2023/03/03 00:39:36;;;;;;;42.35;29.48;;;;;;;2.80;86.89;102277.38;5037847;28;20103;-56
2023/03/03 00:42:12;;;;;;;43.55;31.65;;;;;;;2.80;87.17;102275.63;5036741;28;20384;-56
2023/03/03 00:44:43;;;;;;;42.00;31.95;;;;;;;2.65;87.96;102273.97;5035871;28;20084;-56
2023/03/03 00:47:28;;;;;;;40.15;31.50;;;;;;;2.74;87.66;102275.66;5030912;28;20440;-56
2023/03/03 00:50:10;;;;;;;41.72;30.27;;;;;;;2.74;87.64;102280.91;5020806;28;20048;-57
2023/03/03 00:52:38;;;;;;;39.08;30.20;;;;;;;2.77;87.33;102277.41;5050493;28;20037;-57
2023/03/03 00:55:04;;;;;;;38.85;30.48;;;;;;;2.82;87.17;102275.59;5052118;28;20082;-56
2023/03/03 00:57:30;;;;;;;40.33;31.85;;;;;;;2.86;86.82;102278.19;5031482;28;20484;-57
2023/03/03 00:59:55;;;;;;;42.85;31.77;;;;;;;2.67;87.01;102268.69;5034345;28;20028;-57
2023/03/03 01:02:21;;;;;;;45.80;31.75;;;;;;;2.64;87.45;102277.47;5033849;28;20037;-56
2023/03/03 01:04:50;;;;;;;41.63;30.42;;;;;;;2.64;87.65;102287.09;5033727;28;20029;-56
2023/03/03 01:07:16;;;;;;;41.20;31.95;;;;;;;2.61;87.83;102274.84;5033823;28;20029;-57
2023/03/03 01:09:41;;;;;;;39.40;30.73;;;;;;;2.64;87.81;102277.47;5032696;28;20463;-57
2023/03/03 01:12:07;;;;;;;40.22;31.52;;;;;;;2.55;87.81;102282.78;5032151;28;20029;-57
2023/03/03 01:14:33;;;;;;;41.58;30.05;;;;;;;2.48;88.28;102291.59;5032020;28;20065;-56
2023/03/03 01:16:58;;;;;;;43.08;30.35;;;;;;;2.34;88.63;102257.53;5032415;28;20120;-56
2023/03/03 01:19:24;;;;;;;41.60;32.80;;;;;;;2.52;88.44;102295.06;5032164;28;20025;-56
2023/03/03 01:21:50;;;;;;;42.10;32.70;;;;;;;2.32;88.71;102287.31;5032866;28;20034;-56
2023/03/03 01:24:16;;;;;;;43.30;31.50;;;;;;;2.32;89.08;102282.91;5032137;28;20025;-56
2023/03/03 01:26:41;;;;;;;41.13;30.75;;;;;;;2.51;88.54;102294.19;5031629;28;20365;-56
2023/03/03 01:29:07;;;;;;;40.65;30.48;;;;;;;2.58;88.29;102300.28;5032191;28;20110;-57
2023/03/03 01:31:32;;;;;;;44.20;32.80;;;;;;;2.59;88.08;102300.28;5032321;28;20029;-57
2023/03/03 01:33:58;;;;;;;44.88;31.30;;;;;;;2.53;88.19;102307.31;5033430;28;20480;-57
2023/03/03 01:36:25;;;;;;;40.20;31.23;;;;;;;2.54;87.95;102302.06;5032970;28;20788;-56
2023/03/03 01:38:53;;;;;;;42.53;30.95;;;;;;;2.58;87.95;102292.41;5033375;28;20136;-56
2023/03/03 01:41:19;;;;;;;41.65;30.25;;;;;;;2.51;88.06;102294.19;5031817;28;20030;-56
2023/03/03 01:43:47;;;;;;;40.92;30.25;;;;;;;2.50;87.79;102301.22;5033167;28;20048;-56
2023/03/03 01:46:28;;;;;;;40.97;31.35;;;;;;;2.56;88.00;102304.66;5031677;28;20112;-56
2023/03/03 01:49:03;;;;;;;42.90;32.08;;;;;;;2.52;87.88;102306.44;5033672;28;20026;-56
2023/03/03 01:51:32;;;;;;;41.70;32.50;;;;;;;2.38;88.79;102311.78;5033045;28;20033;-57
2023/03/03 01:54:05;;;;;;;39.30;32.03;;;;;;;2.28;88.97;102316.19;5033579;28;20109;-57
2023/03/03 01:56:31;;;;;;;41.05;30.60;;;;;;;2.32;88.83;102301.28;5032428;28;20021;-56
2023/03/03 01:59:06;;;;;;;41.92;31.77;;;;;;;2.45;88.44;102304.75;5032022;28;20391;-56
2023/03/03 02:01:32;;;;;;;41.65;30.30;;;;;;;2.44;86.84;102300.34;5031702;28;20025;-57
2023/03/03 02:03:59;;;;;;;39.65;29.63;;;;;;;2.48;86.52;102302.09;5033239;28;20100;-56
2023/03/03 02:06:39;;;;;;;40.40;31.10;;;;;;;2.40;87.02;102294.25;5032021;28;20109;-56
2023/03/03 02:09:16;;;;;;;;;;;;;;;2.55;85.74;102301.16;5031776;28;20025;-56
2023/03/03 02:11:44;;;;;;;38.78;28.73;;;;;;;2.25;86.87;102291.72;5030776;28;19917;-56
2023/03/03 02:14:11;;;;;;;42.95;31.73;;;;;;;2.14;85.92;102296.16;5015083;28;20144;-55
2023/03/03 02:16:36;;;;;;;44.05;31.60;;;;;;;2.29;86.44;102298.69;5032568;28;20022;-56
2023/03/03 02:19:05;;;;;;;43.08;31.75;;;;;;;2.21;86.05;102308.38;5031194;28;20017;-57
2023/03/03 02:21:30;;;;;;;43.70;32.05;;;;;;;2.25;86.29;102302.22;5030756;28;20029;-57
2023/03/03 02:24:19;;;;;;;40.53;30.42;;;;;;;2.17;86.30;102311.88;5031198;28;20080;-56
2023/03/03 02:26:45;;;;;;;41.13;31.35;;;;;;;2.17;85.76;102296.13;5030247;28;20056;-57
2023/03/03 02:29:10;;;;;;;42.22;31.13;;;;;;;2.21;86.21;102313.63;5032516;28;20061;-56
2023/03/03 02:31:37;;;;;;;41.53;31.38;;;;;;;2.23;85.48;102311.84;5030502;28;20029;-56
2023/03/03 02:34:03;;;;;;;40.20;29.60;;;;;;;2.13;85.54;102299.66;5032073;28;20100;-56
2023/03/03 02:36:31;;;;;;;41.33;30.38;;;;;;;2.35;85.38;102310.91;5030379;28;20159;-56
2023/03/03 02:39:05;;;;;;;45.55;32.10;;;;;;;2.19;85.66;102308.38;5032158;28;20081;-56
2023/03/03 02:41:38;;;;;;;39.53;29.60;;;;;;;2.10;85.38;102305.78;5031637;28;20124;-57
2023/03/03 02:44:03;;;;;;;41.78;30.40;;;;;;;2.15;86.03;102311.03;5045300;28;20463;-57
2023/03/03 02:46:35;;;;;;;42.80;31.80;;;;;;;1.96;86.19;102310.22;5030751;28;20061;-58
2023/03/03 02:49:05;;;;;;;42.40;31.40;;;;;;;1.90;86.75;102310.25;5031945;28;20104;-57
2023/03/03 02:51:31;;;;;;;44.13;32.00;;;;;;;1.82;86.45;102297.16;5033142;28;20040;-56
2023/03/03 02:53:56;;;;;;;41.45;31.02;;;;;;;1.83;85.91;102308.53;5014381;28;20021;-56
2023/03/03 02:56:22;;;;;;;42.15;30.67;;;;;;;1.92;86.01;102319.84;5031669;28;20361;-57
2023/03/03 02:58:47;;;;;;;42.88;29.63;;;;;;;1.89;85.70;102304.13;5030629;28;20078;-56
2023/03/03 03:01:13;;;;;;;45.40;31.45;;;;;;;1.80;86.34;102305.03;5030364;28;20040;-56
2023/03/03 03:03:38;;;;;;;42.30;30.20;;;;;;;1.81;86.09;102306.78;5031697;28;20025;-57
2023/03/03 03:06:04;;;;;;;42.58;31.00;;;;;;;1.97;86.03;102311.94;5046819;28;20040;-57
2023/03/03 03:08:29;;;;;;;42.60;29.13;;;;;;;1.97;85.95;102309.34;5031576;28;20048;-56
2023/03/03 03:10:55;;;;;;;46.05;30.65;;;;;;;1.90;86.15;102313.72;5029143;28;20033;-57
2023/03/03 03:13:22;;;;;;;43.72;31.67;;;;;;;1.99;86.23;102323.31;5031488;28;20028;-56
2023/03/03 03:15:50;;;;;;;42.42;30.70;;;;;;;1.80;86.34;102309.41;5030054;28;20053;-56
2023/03/03 03:18:18;;;;;;;41.25;29.45;;;;;;;1.83;86.70;102311.16;5031383;28;20022;-56
2023/03/03 03:20:44;;;;;;;41.60;29.27;;;;;;;1.90;86.93;102312.88;5031406;28;20056;-56
2023/03/03 03:23:11;;;;;;;45.15;30.27;;;;;;;1.83;86.40;102314.66;5031445;28;20034;-56
2023/03/03 03:25:44;;;;;;;41.80;29.40;;;;;;;1.87;86.59;102319.00;5030787;28;20108;-56
2023/03/03 03:28:13;;;;;;;37.92;28.27;;;;;;;1.92;86.51;102316.38;5034363;28;20033;-56
2023/03/03 03:30:39;;;;;;;40.60;28.80;;;;;;;2.15;86.05;102322.41;5037142;28;20033;-56
2023/03/03 03:33:04;;;;;;;36.22;27.77;;;;;;;2.15;85.49;102318.91;5049826;28;20036;-56
2023/03/03 03:35:31;;;;;;;39.83;29.45;;;;;;;1.97;85.95;102325.06;5036761;28;20037;-56
2023/03/03 03:37:57;;;;;;;38.83;28.65;;;;;;;1.85;86.03;102318.13;5041289;28;20039;-56
2023/03/03 03:40:24;;;;;;;39.15;29.27;;;;;;;1.81;86.90;102319.88;5046748;28;20037;-57
2023/03/03 03:42:49;;;;;;;43.08;30.88;;;;;;;1.76;86.71;102320.78;5033746;28;20064;-56
2023/03/03 03:45:18;;;;;;;39.17;28.95;;;;;;;1.77;87.27;102322.53;5051341;28;20099;-56
2023/03/03 03:47:43;;;;;;;40.38;29.17;;;;;;;1.78;87.11;102327.75;5043784;28;20488;-57
2023/03/03 03:50:09;;;;;;;39.85;28.35;;;;;;;1.77;86.96;102327.78;5044299;28;20086;-57
2023/03/03 03:52:35;;;;;;;38.10;28.40;;;;;;;1.78;87.04;102314.66;5049151;28;20039;-56
2023/03/03 03:55:04;;;;;;;40.63;29.92;;;;;;;1.94;86.98;102327.72;5033707;28;20037;-56
2023/03/03 03:57:29;;;;;;;38.53;26.48;;;;;;;1.96;87.33;102331.22;5037031;28;20033;-56
2023/03/03 03:59:55;;;;;;;40.97;29.70;;;;;;;1.86;87.34;102327.75;5044113;28;20040;-56
2023/03/03 04:02:20;;;;;;;38.33;28.13;;;;;;;1.89;87.10;102335.63;5047826;28;20099;-57
2023/03/03 04:04:45;;;;;;;37.72;28.45;;;;;;;1.86;86.61;102326.88;5051001;28;20031;-56
2023/03/03 04:07:11;;;;;;;37.42;25.33;;;;;;;1.90;86.72;102334.72;5034790;28;20531;-56
2023/03/03 04:09:36;;;;;;;41.38;30.60;;;;;;;1.88;86.62;102333.84;5030259;28;20065;-57
2023/03/03 04:12:02;;;;;;;37.55;28.15;;;;;;;1.88;86.69;102336.47;5044446;28;20032;-56
2023/03/03 04:14:27;;;;;;;38.17;28.08;;;;;;;1.73;87.26;102336.50;5047667;28;20060;-55
2023/03/03 04:16:53;;;;;;;37.72;27.42;;;;;;;1.63;87.45;102330.44;5017920;28;20033;-57
2023/03/03 04:19:18;;;;;;;36.35;27.63;;;;;;;1.50;87.68;102333.94;5032393;28;20458;-56
2023/03/03 04:21:43;;;;;;;33.55;25.70;;;;;;;1.43;87.74;102337.44;5049011;28;20041;-56
2023/03/03 04:24:09;;;;;;;35.25;25.90;;;;;;;1.36;87.18;102347.06;5053266;28;20029;-56
2023/03/03 04:26:34;;;;;;;35.10;25.23;;;;;;;1.38;87.85;102347.94;5049223;28;20052;-56
2023/03/03 04:29:00;;;;;;;38.50;27.83;;;;;;;1.43;88.08;102350.56;5034192;28;20053;-56
2023/03/03 04:31:26;;;;;;;35.13;25.95;;;;;;;1.46;87.61;102346.19;5035406;28;20124;-56
2023/03/03 04:33:52;;;;;;;34.97;23.20;;;;;;;1.48;87.23;102346.19;5032662;28;20447;-57
2023/03/03 04:36:18;;;;;;;34.50;26.42;;;;;;;1.49;87.29;102346.16;5032961;28;20026;-56
2023/03/03 04:38:46;;;;;;;36.33;26.77;;;;;;;1.35;87.29;102332.19;5034081;28;20036;-56
2023/03/03 04:41:11;;;;;;;36.60;27.25;;;;;;;1.42;87.99;102347.06;5033632;28;20108;-56
2023/03/03 04:43:37;;;;;;;36.40;27.30;;;;;;;1.45;87.56;102346.19;5034064;28;20112;-56
2023/03/03 04:46:03;;;;;;;37.67;27.95;;;;;;;1.44;87.81;102331.31;5032232;28;20458;-57
2023/03/03 04:48:29;;;;;;;36.10;27.55;;;;;;;1.49;87.85;102343.56;5034531;28;20037;-56
2023/03/03 04:50:54;;;;;;;36.10;25.95;;;;;;;1.48;87.73;102348.81;5034246;28;20041;-56
2023/03/03 04:53:22;;;;;;;36.63;27.38;;;;;;;1.39;87.99;102335.72;5033221;28;20385;-57
2023/03/03 04:55:52;;;;;;;35.22;23.15;;;;;;;1.52;87.26;102350.53;5033380;28;20129;-57
2023/03/03 04:58:18;;;;;;;36.07;27.50;;;;;;;1.43;87.83;102346.19;5032945;28;20147;-57
2023/03/03 05:00:48;;;;;;;37.17;27.83;;;;;;;1.32;88.04;102340.97;5032380;28;20048;-57
2023/03/03 05:03:13;;;;;;;37.22;27.10;;;;;;;1.45;88.39;102349.69;5034276;28;20035;-56
2023/03/03 05:05:39;;;;;;;36.17;26.98;;;;;;;1.39;88.41;102354.06;5032491;28;20017;-56
2023/03/03 05:08:05;;;;;;;36.95;26.88;;;;;;;1.34;88.35;102341.81;5032421;28;20040;-56
2023/03/03 05:10:31;;;;;;;38.13;27.83;;;;;;;1.35;88.66;102347.94;5032337;28;20021;-56
2023/03/03 05:12:56;;;;;;;40.85;27.45;;;;;;;1.35;88.92;102342.69;5032905;28;20051;-56
2023/03/03 05:15:22;;;;;;;36.60;24.55;;;;;;;1.54;87.77;102349.66;5033695;28;20053;-56
2023/03/03 05:17:47;;;;;;;35.33;27.58;;;;;;;1.51;88.58;102347.06;5033299;28;20040;-57
2023/03/03 05:20:13;;;;;;;38.42;27.85;;;;;;;1.50;87.92;102347.03;5033689;28;20469;-56
2023/03/03 05:22:38;;;;;;;37.70;28.80;;;;;;;1.54;88.20;102357.53;5033140;28;20028;-56
2023/03/03 05:25:04;;;;;;;38.80;29.05;;;;;;;1.57;87.96;102362.78;5032895;28;20029;-57
2023/03/03 05:27:30;;;;;;;40.28;30.27;;;;;;;1.50;87.41;102361.06;5033125;28;20438;-56
2023/03/03 05:29:55;;;;;;;37.60;28.33;;;;;;;1.50;87.96;102358.44;5032020;28;20029;-56
2023/03/03 05:32:21;;;;;;;39.90;28.52;;;;;;;1.64;87.18;102357.53;5033562;28;20025;-56
2023/03/03 05:34:46;;;;;;;41.35;30.98;;;;;;;1.58;87.80;102361.88;5032581;28;20048;-56
2023/03/03 05:37:12;;;;;;;39.92;28.70;;;;;;;1.64;87.25;102366.25;5031659;28;20028;-57
2023/03/03 05:39:37;;;;;;;40.30;28.23;;;;;;;1.53;87.33;102349.66;5032378;28;20124;-56
2023/03/03 05:42:05;;;;;;;42.67;30.27;;;;;;;1.62;87.74;102360.16;5033083;28;20124;-56
2023/03/03 05:44:30;;;;;;;41.38;28.98;;;;;;;1.75;87.03;102366.25;5032928;28;20392;-56
2023/03/03 05:46:56;;;;;;;43.75;30.25;;;;;;;1.64;87.28;102361.00;5033443;28;20025;-56
2023/03/03 05:49:22;;;;;;;42.95;30.17;;;;;;;1.68;87.11;102361.91;5031240;28;20102;-56
2023/03/03 05:51:47;;;;;;;44.40;30.38;;;;;;;1.77;87.25;102372.38;5041050;28;20026;-57
2023/03/03 05:54:12;;;;;;;37.75;27.88;;;;;;;1.88;87.13;102372.31;5053372;28;20039;-56
2023/03/03 05:56:38;;;;;;;39.13;28.20;;;;;;;1.80;87.32;102356.63;5038209;28;20059;-57
2023/03/03 05:59:08;;;;;;;39.00;28.40;;;;;;;1.81;87.34;102360.97;5031365;28;20075;-56
2023/03/03 06:01:33;;;;;;;;;;;;;;;1.94;86.71;102369.69;5033246;28;20026;-56
2023/03/03 06:03:59;;;;;;;40.05;27.40;;;;;;;1.89;87.47;102363.59;5031698;28;19917;-56
2023/03/03 06:06:24;;;;;;;40.42;27.25;;;;;;;1.87;87.34;102365.34;5029772;28;20040;-57
2023/03/03 06:08:49;;;;;;;39.50;27.88;;;;;;;1.89;87.73;102369.72;5031097;28;20098;-56
2023/03/03 06:11:17;;;;;;;37.83;26.98;;;;;;;1.92;87.68;102371.47;5031268;28;20431;-56
2023/03/03 06:13:42;;;;;;;38.45;26.98;;;;;;;1.96;87.25;102370.56;5032239;28;20017;-56
2023/03/03 06:16:08;;;;;;;37.83;27.83;;;;;;;2.02;86.96;102373.16;5031195;28;20048;-56
2023/03/03 06:18:33;;;;;;;36.97;28.80;;;;;;;2.05;86.83;102375.78;5031465;28;20034;-57
2023/03/03 06:20:58;;;;;;;37.28;28.30;;;;;;;2.04;86.74;102368.78;5033514;28;20100;-57
2023/03/03 06:23:24;;;;;;;42.05;28.08;;;;;;;2.01;86.57;102367.06;5031380;28;20025;-56
2023/03/03 06:25:49;;;;;;;38.83;28.48;;;;;;;1.96;86.81;102383.69;5030346;28;20040;-57
2023/03/03 06:28:15;;;;;;;41.15;28.83;;;;;;;2.11;86.57;102388.88;5032179;28;20388;-56
2023/03/03 06:30:40;;;;;;;39.13;28.17;;;;;;;1.97;86.92;102386.31;5032232;28;20175;-56
2023/03/03 06:33:05;;;;;;;40.97;28.23;;;;;;;2.05;86.68;102394.16;5030689;28;20029;-56
2023/03/03 06:35:31;;;;;;;38.70;27.15;;;;;;;2.16;86.09;102389.75;5031760;28;20444;-57
2023/03/03 06:37:56;;;;;;;40.85;27.63;;;;;;;2.15;86.10;102397.63;5030881;28;20029;-58
2023/03/03 06:40:22;;;;;;;39.13;28.98;;;;;;;2.08;86.47;102399.38;5031342;28;20128;-57
2023/03/03 06:42:47;;;;;;;40.33;27.88;;;;;;;2.06;86.21;102406.41;5030351;28;20033;-58
2023/03/03 06:45:13;;;;;;;35.53;26.85;;;;;;;2.05;85.81;102407.28;5029259;28;20396;-57
2023/03/03 06:47:39;;;;;;;38.63;28.42;;;;;;;2.10;86.23;102412.53;5031636;28;20434;-57
2023/03/03 06:50:08;;;;;;;36.45;26.95;;;;;;;2.21;85.49;102408.13;5030624;28;20029;-57
2023/03/03 06:52:34;;;;;;;39.10;27.80;;;;;;;2.12;85.85;102421.25;5031073;28;20029;-58
2023/03/03 06:55:08;;;;;;;39.55;28.60;;;;;;;2.13;86.50;102423.88;5031369;28;20036;-57
2023/03/03 06:57:34;;;;;;;40.47;27.58;;;;;;;2.18;86.14;102422.13;5032042;28;20097;-57
2023/03/03 07:00:14;;;;;;;35.90;28.48;;;;;;;2.28;85.80;102433.47;5031442;28;20056;-57
2023/03/03 07:02:39;;;;;;;;;;;;;;;2.30;85.58;102433.47;5030735;28;20056;-57
2023/03/03 07:05:12;;;;;;;39.38;26.83;;;;;;;2.21;86.30;102432.59;5030245;28;20364;-58
2023/03/03 07:07:38;;;;;;;39.75;29.02;;;;;;;2.26;85.90;102435.19;5031691;28;20480;-58
2023/03/03 07:10:15;;;;;;;42.10;28.40;;;;;;;2.20;85.59;102432.59;5030536;28;20123;-58
2023/03/03 07:12:41;;;;;;;40.40;29.17;;;;;;;2.09;86.17;102434.38;5031584;28;20503;-58
2023/03/03 07:15:08;;;;;;;37.15;28.33;;;;;;;2.14;86.25;102440.50;5045854;28;20035;-57
2023/03/03 07:17:35;;;;;;;41.78;28.63;;;;;;;2.15;86.74;102434.38;5031142;28;20106;-57
2023/03/03 07:20:00;;;;;;;42.90;31.02;;;;;;;2.21;86.41;102435.22;5029565;28;20078;-58
2023/03/03 07:22:29;;;;;;;40.70;28.77;;;;;;;2.16;86.05;102439.63;5031697;28;20041;-57
2023/03/03 07:25:00;;;;;;;39.58;27.17;;;;;;;2.11;86.59;102432.63;5030727;28;20484;-57
2023/03/03 07:27:28;;;;;;;39.95;27.83;;;;;;;2.17;86.45;102441.34;5030260;28;20388;-57
2023/03/03 07:30:16;;;;;;;41.45;28.58;;;;;;;2.21;86.96;102442.25;5028762;28;20021;-57
2023/03/03 07:32:44;;;;;;;40.13;28.13;;;;;;;2.27;86.33;102444.84;5030103;28;20022;-58
2023/03/03 07:35:31;;;;;;;39.47;28.00;;;;;;;2.30;86.40;102441.34;5028487;28;20032;-57
2023/03/03 07:37:56;;;;;;;39.03;27.50;;;;;;;2.29;86.57;102448.31;5041001;28;20048;-58
2023/03/03 07:40:35;;;;;;;41.08;28.70;;;;;;;2.37;86.39;102443.91;5029849;28;20504;-57
2023/03/03 07:43:24;;;;;;;43.72;30.48;;;;;;;2.38;86.56;102456.19;5028520;28;20034;-57
2023/03/03 07:45:50;;;;;;;44.00;30.02;;;;;;;2.33;86.60;102454.47;5030684;28;20511;-57
2023/03/03 07:48:23;;;;;;;41.83;28.42;;;;;;;2.22;87.29;102460.59;5029996;28;20025;-57
2023/03/03 07:50:48;;;;;;;46.00;33.00;;;;;;;2.24;87.73;102457.97;5042266;28;20040;-57
2023/03/03 07:53:25;;;;;;;45.25;31.38;;;;;;;2.34;87.24;102466.69;5040612;28;20021;-57
2023/03/03 07:55:50;;;;;;;40.78;29.42;;;;;;;2.30;87.32;102467.59;5040235;28;20168;-57
2023/03/03 07:58:42;;;;;;;43.05;30.35;;;;;;;2.42;86.86;102464.94;5033602;28;20017;-56
2023/03/03 08:01:29;;;;;;;39.75;27.60;;;;;;;2.49;86.50;102467.50;5034777;28;20041;-57
2023/03/03 08:03:58;;;;;;;41.70;29.80;;;;;;;2.48;86.23;102475.41;5030727;28;20120;-56
2023/03/03 08:06:35;;;;;;;39.63;27.85;;;;;;;2.53;86.69;102472.75;5024105;28;20021;-57
2023/03/03 08:09:10;;;;;;;43.58;31.05;;;;;;;2.39;86.90;102478.06;5033577;28;20033;-57
2023/03/03 08:12:06;;;;;;;45.13;31.10;;;;;;;2.36;87.11;102478.94;5034215;28;20425;-57
2023/03/03 08:14:36;;;;;;;45.28;30.83;;;;;;;2.41;86.85;102478.91;5031620;28;20052;-57
2023/03/03 08:17:12;;;;;;;43.90;29.95;;;;;;;2.36;87.29;102485.94;5040369;28;20388;-57
2023/03/03 08:19:38;;;;;;;39.28;28.67;;;;;;;2.45;87.68;102486.78;5043128;28;20036;-57
2023/03/03 08:22:32;;;;;;;43.35;30.48;;;;;;;2.42;86.82;102492.06;5048519;28;20025;-56
2023/03/03 08:24:57;;;;;;;43.08;28.67;;;;;;;2.32;86.46;102492.94;5048585;28;20045;-56
2023/03/03 08:27:25;;;;;;;41.88;28.63;;;;;;;2.31;86.08;102495.59;5037251;28;20026;-57
2023/03/03 08:29:50;;;;;;;39.80;28.48;;;;;;;2.28;86.24;102494.69;5033386;28;20025;-57
2023/03/03 08:32:16;;;;;;;39.83;27.80;;;;;;;2.36;85.99;102497.31;5033380;28;20032;-57
2023/03/03 08:34:41;;;;;;;40.30;27.17;;;;;;;2.45;85.64;102493.81;5034181;28;20025;-57
2023/03/03 08:37:06;;;;;;;39.55;28.20;;;;;;;2.39;85.20;102497.31;5033281;28;20432;-57
2023/03/03 08:39:32;;;;;;;34.80;25.52;;;;;;;2.33;84.91;102499.09;5033985;28;20075;-56
2023/03/03 08:41:57;;;;;;;36.20;25.85;;;;;;;2.36;84.98;102502.56;5034419;28;20508;-57
2023/03/03 08:44:23;;;;;;;35.42;25.35;;;;;;;2.47;83.58;102489.41;5033533;28;20373;-57
2023/03/03 08:46:48;;;;;;;38.95;27.83;;;;;;;2.68;83.73;102501.63;5049460;28;20040;-57
2023/03/03 08:49:14;;;;;;;39.10;27.23;;;;;;;2.72;83.02;102504.19;5033064;28;20025;-57
2023/03/03 08:51:39;;;;;;;35.72;25.70;;;;;;;2.79;82.67;102502.41;5032854;28;20021;-57
2023/03/03 08:54:04;;;;;;;39.30;27.42;;;;;;;2.85;82.89;102514.66;5034320;28;20021;-57
2023/03/03 08:56:30;;;;;;;42.05;29.45;;;;;;;2.83;83.66;102513.81;5032422;28;20036;-57
2023/03/03 08:58:55;;;;;;;44.25;30.63;;;;;;;2.72;84.77;102509.47;5034391;28;20472;-57
2023/03/03 09:01:20;;;;;;;46.95;34.78;;;;;;;2.71;85.93;102520.00;5033897;28;20108;-57
2023/03/03 09:03:46;;;;;;;44.13;30.85;;;;;;;2.67;86.18;102524.34;5032485;28;20481;-57
2023/03/03 09:06:11;;;;;;;44.30;29.30;;;;;;;2.69;86.54;102514.72;5032017;28;20026;-57
2023/03/03 09:08:37;;;;;;;42.58;30.48;;;;;;;2.75;86.24;102526.97;5031620;28;20021;-57
2023/03/03 09:11:11;;;;;;;44.33;32.30;;;;;;;2.68;86.69;102531.38;5033170;28;20506;-57
2023/03/03 09:13:36;;;;;;;40.92;28.35;;;;;;;2.73;85.82;102526.09;5033942;28;20021;-57
2023/03/03 09:16:12;;;;;;;43.03;29.48;;;;;;;2.68;86.25;102531.38;5033727;28;20040;-57
2023/03/03 09:18:38;;;;;;;40.33;28.50;;;;;;;2.75;85.48;102531.34;5033375;28;20029;-57
2023/03/03 09:21:23;;;;;;;42.55;29.92;;;;;;;2.85;85.83;102533.91;5031854;28;20067;-57
2023/03/03 09:23:55;;;;;;;39.38;26.67;;;;;;;2.92;85.42;102537.41;5032285;28;20033;-57
2023/03/03 09:26:43;;;;;;;39.00;28.15;;;;;;;2.91;84.84;102535.66;5032783;28;20427;-57
2023/03/03 09:29:24;;;;;;;36.72;26.52;;;;;;;2.95;84.64;102525.13;5033325;28;20032;-57
2023/03/03 09:31:57;;;;;;;37.65;27.52;;;;;;;3.03;83.89;102533.00;5033670;28;20480;-57
2023/03/03 09:34:35;;;;;;;34.95;26.27;;;;;;;3.01;83.69;102534.75;5033582;28;20021;-57
2023/03/03 09:37:18;;;;;;;31.13;23.10;;;;;;;3.08;82.77;102533.81;5033256;28;20495;-57
2023/03/03 09:39:50;;;;;;;34.35;25.42;;;;;;;3.05;82.21;102535.59;5031723;28;20072;-57
2023/03/03 09:42:45;;;;;;;31.38;24.08;;;;;;;3.22;81.85;102543.41;5033435;28;20017;-57
2023/03/03 09:45:34;;;;;;;32.65;25.30;;;;;;;3.31;81.48;102540.72;5033131;28;20021;-57
2023/03/03 09:48:15;;;;;;;31.02;24.60;;;;;;;3.26;82.18;102543.38;5032915;28;20234;-57
2023/03/03 09:50:48;;;;;;;29.10;22.52;;;;;;;3.24;81.11;102539.91;5031531;28;20037;-57
2023/03/03 09:53:33;;;;;;;31.15;24.13;;;;;;;3.39;81.15;102545.06;5048605;28;20035;-57
2023/03/03 09:56:08;;;;;;;28.50;22.83;;;;;;;3.35;80.69;102553.88;5032648;28;20029;-57
2023/03/03 09:58:50;;;;;;;29.92;24.40;;;;;;;3.24;81.03;102552.19;5031785;28;20021;-57
2023/03/03 10:01:30;;;;;;;29.85;23.33;;;;;;;3.22;81.14;102546.91;5033246;28;20071;-57
2023/03/03 10:03:56;;;;;;;28.45;21.95;;;;;;;3.29;80.41;102550.38;5032623;28;20025;-57
2023/03/03 10:06:44;;;;;;;28.65;23.95;;;;;;;3.41;80.43;102542.41;5032734;28;20120;-57
2023/03/03 10:09:34;;;;;;;33.13;25.38;;;;;;;3.59;80.31;102557.25;5032342;28;20033;-57
2023/03/03 10:12:17;;;;;;;27.27;20.75;;;;;;;3.62;80.33;102558.09;5032288;28;20040;-57
2023/03/03 10:14:43;;;;;;;27.63;23.05;;;;;;;3.56;80.34;102562.47;5032390;28;20112;-57
2023/03/03 10:17:26;;;;;;;29.73;21.67;;;;;;;3.55;79.79;102558.13;5032443;28;20583;-57
2023/03/03 10:20:04;;;;;;;24.42;21.08;;;;;;;3.60;79.80;102551.06;5030702;28;20029;-58
2023/03/03 10:22:53;;;;;;;29.00;22.73;;;;;;;3.75;80.00;102553.59;5031906;28;20048;-57
2023/03/03 10:25:37;;;;;;;27.92;21.70;;;;;;;3.69;78.91;102560.66;5031807;28;20033;-56
2023/03/03 10:28:43;;;;;;;24.17;20.70;;;;;;;3.72;78.96;102560.66;5012673;28;20107;-56
2023/03/03 10:31:21;;;;;;;24.50;20.60;;;;;;;3.72;79.07;102563.28;5011197;28;20488;-55
2023/03/03 10:33:53;;;;;;;24.75;19.92;;;;;;;3.72;78.65;102553.63;5024156;28;20488;-56
2023/03/03 10:36:43;;;;;;;23.85;19.88;;;;;;;3.92;78.81;102565.78;5012612;28;20718;-56
2023/03/03 10:39:38;;;;;;;22.83;20.27;;;;;;;3.98;78.08;102560.47;5028442;28;20044;-56
2023/03/03 10:42:33;;;;;;;23.33;20.50;;;;;;;4.07;77.98;102557.75;5032115;28;20041;-55
2023/03/03 10:45:11;;;;;;;22.15;19.67;;;;;;;4.08;77.70;102554.22;5032163;28;20040;-56
2023/03/03 10:47:54;;;;;;;25.52;21.95;;;;;;;4.09;78.82;102553.34;5032085;28;20112;-56
2023/03/03 10:50:29;;;;;;;25.58;19.88;;;;;;;4.11;77.87;102554.19;5032335;28;20025;-56
2023/03/03 10:53:07;;;;;;;21.90;19.35;;;;;;;4.33;76.01;102547.84;5032546;28;20024;-56
2023/03/03 10:55:40;;;;;;;21.40;18.90;;;;;;;4.54;75.21;102546.75;5031566;28;20421;-56
2023/03/03 10:58:35;;;;;;;22.38;19.58;;;;;;;4.76;74.85;102546.50;5031926;28;20111;-56
2023/03/03 11:01:39;;;;;;;22.88;19.42;;;;;;;5.10;74.04;102548.75;5011818;28;20061;-56
2023/03/03 11:04:28;;;;;;;22.88;20.30;;;;;;;5.26;71.91;102544.13;5005461;28;20116;-56
2023/03/03 11:07:01;;;;;;;25.05;19.90;;;;;;;5.41;72.18;102549.19;5012229;28;20091;-56
2023/03/03 11:09:32;;;;;;;26.83;20.50;;;;;;;5.64;71.33;102544.44;5026942;28;20040;-56
2023/03/03 11:12:00;;;;;;;23.40;18.67;;;;;;;5.98;71.39;102541.31;5031792;28;20029;-56
2023/03/03 11:14:33;;;;;;;23.30;17.38;;;;;;;6.62;68.66;102551.63;5029983;28;20468;-57
2023/03/03 11:17:12;;;;;;;19.83;16.52;;;;;;;6.85;68.17;102541.47;5031319;28;20492;-57
2023/03/03 11:20:03;;;;;;;19.77;16.02;;;;;;;6.54;68.82;102547.38;5030168;28;20515;-57
2023/03/03 11:22:58;;;;;;;23.52;19.52;;;;;;;6.12;69.52;102549.91;5030147;28;20029;-57
2023/03/03 11:26:02;;;;;;;28.60;19.58;;;;;;;6.14;69.93;102547.22;5024075;28;20045;-56
2023/03/03 11:28:43;;;;;;;26.50;19.20;;;;;;;6.00;69.73;102541.28;5030894;28;20603;-57
2023/03/03 11:31:58;;;;;;;301.60;39.40;;;;;;;5.95;70.00;102536.09;5022593;28;20054;-57
2023/03/03 11:34:41;;;;;;;24.00;17.58;;;;;;;5.95;70.13;102540.50;4993802;28;20049;-56
2023/03/03 11:37:31;;;;;;;22.98;18.00;;;;;;;6.06;70.72;102542.09;5022947;28;20025;-57